createdAt,value
2022-07-27T00:01:32.315Z,96599.59
2022-07-27T00:04:01.956Z,96593.44
2022-07-27T00:06:30.587Z,96600.94
2022-07-27T00:08:58.730Z,96604.91
2022-07-27T00:11:27.445Z,96604.38
2022-07-27T00:13:55.537Z,96604.38
2022-07-27T00:16:23.720Z,96601.19
2022-07-27T00:18:51.910Z,96610.34
2022-07-27T00:21:21.410Z,96596.94
2022-07-27T00:23:49.469Z,96590.56
2022-07-27T00:26:17.840Z,96599.41
2022-07-27T00:28:45.917Z,96593.75
2022-07-27T00:31:14.624Z,96598.59
2022-07-27T00:33:42.791Z,96605.84
2022-07-27T00:36:11.438Z,96600.50
2022-07-27T00:38:40.949Z,96601.53
2022-07-27T00:41:12.316Z,96609.31
2022-07-27T00:43:55.370Z,96604.22
2022-07-27T00:46:24.417Z,96603.16
2022-07-27T00:48:53.501Z,96596.19
2022-07-27T00:51:23.249Z,96598.09
2022-07-27T00:53:54.131Z,96589.19
2022-07-27T00:56:23.653Z,96583.34
2022-07-27T00:58:54.281Z,96582.78
2022-07-27T01:01:22.478Z,96588.16
2022-07-27T01:03:50.771Z,96581.22
2022-07-27T01:06:26.765Z,96581.53
2022-07-27T01:09:13.349Z,96587.22
2022-07-27T01:11:42.177Z,96587.22
2022-07-27T01:14:13.112Z,96580.56
2022-07-27T01:16:41.771Z,96582.44
2022-07-27T01:19:11.893Z,96584.59
2022-07-27T01:21:41.857Z,96574.69
2022-07-27T01:24:10.699Z,96575.47
2022-07-27T01:26:40.570Z,96576.56
2022-07-27T01:29:09.319Z,96577.09
2022-07-27T01:31:37.733Z,96572.84
2022-07-27T01:34:06.861Z,96567.50
2022-07-27T01:36:35.184Z,96557.88
2022-07-27T01:39:05.181Z,96568.59
2022-07-27T01:41:33.564Z,96559.53
2022-07-27T01:44:01.789Z,96563.78
2022-07-27T01:46:30.142Z,96559.00
2022-07-27T01:48:58.480Z,96560.56
2022-07-27T01:51:26.776Z,96562.72
2022-07-27T01:53:55.052Z,96553.63
2022-07-27T01:56:24.930Z,96549.88
2022-07-27T01:58:53.202Z,96550.41
2022-07-27T02:01:21.494Z,96539.19
2022-07-27T02:03:49.860Z,96543.22
2022-07-27T02:06:18.250Z,96541.38
2022-07-27T02:08:46.497Z,96537.66
2022-07-27T02:11:32.299Z,96531.81
2022-07-27T02:14:02.012Z,96530.75
2022-07-27T02:16:30.440Z,96539.34
2022-07-27T02:18:59.311Z,96531.31
2022-07-27T02:21:33.087Z,96522.78
2022-07-27T02:24:01.373Z,96519.56
2022-07-27T02:26:29.620Z,96524.44
2022-07-27T02:28:57.878Z,96532.19
2022-07-27T02:31:32.699Z,96542.94
2022-07-27T02:34:01.632Z,96546.44
2022-07-27T02:36:30.117Z,96547.53
2022-07-27T02:38:58.679Z,96547.81
2022-07-27T02:41:27.024Z,96546.22
2022-07-27T02:43:55.215Z,96549.19
2022-07-27T02:46:23.510Z,96540.91
2022-07-27T02:48:53.237Z,96542.25
2022-07-27T02:51:21.600Z,96532.13
2022-07-27T02:53:50.226Z,96540.16
2022-07-27T02:56:20.596Z,96541.78
2022-07-27T02:58:56.831Z,96534.56
2022-07-27T03:01:25.829Z,96531.63
2022-07-27T03:03:55.453Z,96536.97
2022-07-27T03:06:23.755Z,96538.63
2022-07-27T03:08:52.022Z,96544.47
2022-07-27T03:11:20.590Z,96548.22
2022-07-27T03:13:49.050Z,96540.44
2022-07-27T03:16:17.359Z,96543.38
2022-07-27T03:18:45.938Z,96550.34
2022-07-27T03:21:15.810Z,96548.72
2022-07-27T03:23:44.955Z,96545.03
2022-07-27T03:26:13.121Z,96533.75
2022-07-27T03:28:41.361Z,96538.84
2022-07-27T03:31:09.652Z,96535.38
2022-07-27T03:33:38.326Z,96532.97
2022-07-27T03:36:08.317Z,96535.13
2022-07-27T03:38:37.915Z,96530.03
2022-07-27T03:41:06.917Z,96531.13
2022-07-27T03:43:36.230Z,96532.72
2022-07-27T03:46:04.343Z,96546.31
2022-07-27T03:48:32.704Z,96541.78
2022-07-27T03:51:01.117Z,96532.41
2022-07-27T03:53:29.634Z,96543.94
2022-07-27T03:55:59.341Z,96547.91
2022-07-27T03:58:27.581Z,96538.03
2022-07-27T04:00:55.990Z,96538.31
2022-07-27T04:03:24.291Z,96543.13
2022-07-27T04:05:52.667Z,96549.53
2022-07-27T04:08:21.313Z,96549.25
2022-07-27T04:10:49.699Z,96557.03
2022-07-27T04:13:21.655Z,96554.06
2022-07-27T04:15:50.206Z,96549.53
2022-07-27T04:18:18.453Z,96551.66
2022-07-27T04:20:47.669Z,96553.84
2022-07-27T04:23:15.961Z,96554.06
2022-07-27T04:25:44.191Z,96564.78
2022-07-27T04:28:12.898Z,96562.38
2022-07-27T04:30:42.562Z,96566.91
2022-07-27T04:33:11.049Z,96560.47
2022-07-27T04:35:39.284Z,96561.06
2022-07-27T04:38:07.638Z,96567.69
2022-07-27T04:40:36.977Z,96561.31
2022-07-27T04:43:07.590Z,96563.72
2022-07-27T04:45:36.062Z,96563.72
2022-07-27T04:48:08.611Z,96570.38
2022-07-27T04:50:41.757Z,96558.34
2022-07-27T04:53:10.505Z,96569.31
2022-07-27T04:55:39.260Z,96566.09
2022-07-27T04:58:07.556Z,96570.91
2022-07-27T05:00:35.894Z,96564.75
2022-07-27T05:03:04.374Z,96582.38
2022-07-27T05:05:34.082Z,96588.25
2022-07-27T05:08:03.458Z,96590.94
2022-07-27T05:10:31.831Z,96598.41
2022-07-27T05:13:00.183Z,96597.63
2022-07-27T05:15:54.830Z,96594.16
2022-07-27T05:18:20.429Z,96596.28
2022-07-27T05:20:51.501Z,96587.47
2022-07-27T05:23:19.914Z,96594.66
2022-07-27T05:25:48.296Z,96604.03
2022-07-27T05:28:16.684Z,96598.94
2022-07-27T05:30:44.894Z,96602.13
2022-07-27T05:33:13.224Z,96598.69
2022-07-27T05:35:41.520Z,96613.66
2022-07-27T05:38:11.127Z,96613.91
2022-07-27T05:40:39.415Z,96613.34
2022-07-27T05:43:07.733Z,96613.34
2022-07-27T05:45:36.041Z,96616.56
2022-07-27T05:48:04.655Z,96615.47
2022-07-27T05:50:32.919Z,96613.34
2022-07-27T05:53:01.365Z,96619.50
2022-07-27T05:55:31.112Z,96625.09
2022-07-27T05:57:59.556Z,96619.22
2022-07-27T06:00:27.921Z,96616.03
2022-07-27T06:02:56.200Z,96622.69
2022-07-27T06:05:24.567Z,96613.06
2022-07-27T06:08:01.435Z,96609.50
2022-07-27T06:10:34.009Z,96615.44
2022-07-27T06:13:03.749Z,96616.78
2022-07-27T06:15:32.183Z,96617.06
2022-07-27T06:18:00.516Z,96618.59
2022-07-27T06:20:28.970Z,96635.78
2022-07-27T06:23:00.142Z,96630.94
2022-07-27T06:25:35.689Z,96632.50
2022-07-27T06:28:04.993Z,96625.84
2022-07-27T06:30:34.209Z,96628.81
2022-07-27T06:33:04.842Z,96630.66
2022-07-27T06:35:34.694Z,96633.88
2022-07-27T06:38:06.179Z,96633.03
2022-07-27T06:40:35.991Z,96637.56
2022-07-27T06:43:04.953Z,96638.94
2022-07-27T06:45:33.264Z,96640.81
2022-07-27T06:48:01.488Z,96637.28
2022-07-27T06:50:29.816Z,96634.88
2022-07-27T06:52:58.346Z,96630.38
2022-07-27T06:55:26.707Z,96628.50
2022-07-27T06:57:56.367Z,96635.72
2022-07-27T07:00:25.037Z,96635.72
2022-07-27T07:02:55.954Z,96641.63
2022-07-27T07:05:24.469Z,96635.72
2022-07-27T07:07:54.290Z,96637.34
2022-07-27T07:10:24.203Z,96640.78
2022-07-27T07:12:55.897Z,96642.91
2022-07-27T07:15:27.272Z,96652.84
2022-07-27T07:17:55.618Z,96647.44
2022-07-27T07:20:24.745Z,96640.25
2022-07-27T07:22:53.270Z,96639.34
2022-07-27T07:25:21.995Z,96640.44
2022-07-27T07:27:51.075Z,96643.75
2022-07-27T07:30:19.618Z,96641.00
2022-07-27T07:32:49.898Z,96638.28
2022-07-27T07:35:18.764Z,96622.19
2022-07-27T07:37:50.097Z,96637.72
2022-07-27T07:43:08.344Z,96627.56
2022-07-27T07:45:50.881Z,96631.63
2022-07-27T07:48:22.505Z,96632.53
2022-07-27T07:50:53.138Z,96630.75
2022-07-27T07:53:23.366Z,96625.50
2022-07-27T07:55:52.622Z,96627.03
2022-07-27T07:58:21.588Z,96632.84
2022-07-27T08:00:50.790Z,96636.03
2022-07-27T08:03:20.975Z,96630.41
2022-07-27T08:05:49.485Z,96625.00
2022-07-27T08:08:18.886Z,96623.47
2022-07-27T08:10:47.826Z,96624.72
2022-07-27T08:13:21.471Z,96628.63
2022-07-27T08:15:51.529Z,96642.13
2022-07-27T08:18:21.776Z,96640.22
2022-07-27T08:20:50.466Z,96643.13
2022-07-27T08:23:18.794Z,96643.84
2022-07-27T08:25:47.326Z,96648.41
2022-07-27T08:28:15.613Z,96649.25
2022-07-27T08:30:44.528Z,96648.91
2022-07-27T08:33:13.253Z,96657.28
2022-07-27T08:35:43.153Z,96649.97
2022-07-27T08:38:13.991Z,96653.97
2022-07-27T08:40:45.846Z,96649.28
2022-07-27T08:43:23.639Z,96657.91
2022-07-27T08:45:58.479Z,96653.84
2022-07-27T08:48:28.507Z,96658.81
2022-07-27T08:50:58.262Z,96648.41
2022-07-27T08:53:34.234Z,96652.31
2022-07-27T08:56:17.185Z,96652.41
2022-07-27T08:58:46.431Z,96651.69
2022-07-27T09:01:14.909Z,96651.09
2022-07-27T09:03:43.385Z,96655.59
2022-07-27T09:06:13.227Z,96661.09
2022-07-27T09:08:41.957Z,96658.47
2022-07-27T09:11:16.362Z,96655.22
2022-07-27T09:13:44.917Z,96660.25
2022-07-27T09:16:18.187Z,96656.25
2022-07-27T09:18:48.119Z,96658.09
2022-07-27T09:21:20.948Z,96660.50
2022-07-27T09:23:52.080Z,96660.25
2022-07-27T09:26:32.939Z,96654.69
2022-07-27T09:31:43.734Z,96653.38
2022-07-27T09:34:13.270Z,96646.59
2022-07-27T09:36:54.902Z,96651.16
2022-07-27T09:39:26.843Z,96649.56
2022-07-27T09:41:58.026Z,96645.16
2022-07-27T09:44:43.371Z,96645.09
2022-07-27T09:47:29.378Z,96646.09
2022-07-27T09:49:59.546Z,96644.94
2022-07-27T09:52:32.277Z,96649.06
2022-07-27T09:55:06.458Z,96651.00
2022-07-27T09:57:53.278Z,96652.16
2022-07-27T10:00:22.554Z,96648.00
2022-07-27T10:02:51.329Z,96641.81
2022-07-27T10:05:21.697Z,96650.91
2022-07-27T10:07:53.244Z,96641.06
2022-07-27T10:10:23.110Z,96646.03
2022-07-27T10:12:54.979Z,96647.44
2022-07-27T10:15:24.476Z,96644.66
2022-07-27T10:18:02.050Z,96641.31
2022-07-27T10:20:34.371Z,96648.97
2022-07-27T10:23:04.241Z,96638.88
2022-07-27T10:25:37.904Z,96635.72
2022-07-27T10:28:13.373Z,96633.41
2022-07-27T10:30:41.806Z,96637.94
2022-07-27T10:33:33.950Z,96640.06
2022-07-27T10:36:04.173Z,96636.25
2022-07-27T10:38:48.568Z,96638.22
2022-07-27T10:41:25.061Z,96637.50
2022-07-27T10:44:29.707Z,96641.16
2022-07-27T10:47:01.138Z,96634.56
2022-07-27T10:49:32.845Z,96635.91
2022-07-27T10:52:13.915Z,96636.06
2022-07-27T10:54:46.802Z,96634.28
2022-07-27T10:57:27.972Z,96632.22
2022-07-27T11:00:17.690Z,96620.16
2022-07-27T11:02:45.618Z,96623.22
2022-07-27T11:08:35.267Z,96623.44
2022-07-27T11:10:56.942Z,96623.25
2022-07-27T11:13:35.297Z,96629.31
2022-07-27T11:16:24.283Z,96623.63
2022-07-27T11:19:04.113Z,96627.47
2022-07-27T11:21:35.619Z,96624.25
2022-07-27T11:24:12.242Z,96627.88
2022-07-27T11:26:45.092Z,96617.06
2022-07-27T11:29:16.027Z,96627.84
2022-07-27T11:31:56.608Z,96619.97
2022-07-27T11:34:52.701Z,96615.63
2022-07-27T11:37:24.081Z,96627.50
2022-07-27T11:40:13.909Z,96616.44
2022-07-27T11:42:43.828Z,96625.53
2022-07-27T11:45:12.418Z,96616.34
2022-07-27T11:47:40.634Z,96613.16
2022-07-27T11:50:12.110Z,96609.00
2022-07-27T11:52:40.508Z,96610.63
2022-07-27T11:55:09.332Z,96601.84
2022-07-27T11:57:43.187Z,96600.38
2022-07-27T12:00:13.570Z,96602.59
2022-07-27T12:02:50.607Z,96604.38
2022-07-27T12:05:19.117Z,96612.50
2022-07-27T12:07:47.501Z,96600.16
2022-07-27T12:10:16.472Z,96605.00
2022-07-27T12:12:50.590Z,96602.28
2022-07-27T12:15:44.437Z,96606.00
2022-07-27T12:18:09.616Z,96610.38
2022-07-27T12:20:38.125Z,96595.06
2022-07-27T12:23:08.951Z,96607.88
2022-07-27T12:25:39.013Z,96608.78
2022-07-27T12:28:12.504Z,96611.28
2022-07-27T12:30:44.744Z,96609.78
2022-07-27T12:33:28.725Z,96608.88
2022-07-27T12:35:57.945Z,96609.28
2022-07-27T12:38:37.149Z,96613.56
2022-07-27T12:41:05.674Z,96609.38
2022-07-27T12:43:35.287Z,96609.56
2022-07-27T12:46:15.533Z,96608.19
2022-07-27T12:48:44.681Z,96593.72
2022-07-27T12:51:13.134Z,96597.81
2022-07-27T12:53:41.511Z,96594.41
2022-07-27T12:56:11.301Z,96592.91
2022-07-27T12:58:41.295Z,96593.53
2022-07-27T13:01:09.685Z,96593.00
2022-07-27T13:03:37.988Z,96591.41
2022-07-27T13:06:12.461Z,96594.88
2022-07-27T13:08:41.424Z,96589.91
2022-07-27T13:11:09.848Z,96584.03
2022-07-27T13:13:38.198Z,96587.63
2022-07-27T13:16:07.982Z,96593.19
2022-07-27T13:18:36.214Z,96587.13
2022-07-27T13:21:05.312Z,96593.31
2022-07-27T13:23:33.748Z,96591.22
2022-07-27T13:26:02.107Z,96590.44
2022-07-27T13:28:30.369Z,96596.81
2022-07-27T13:30:58.673Z,96590.44
2022-07-27T13:33:29.513Z,96589.50
2022-07-27T13:36:00.236Z,96581.25
2022-07-27T13:38:29.516Z,96584.94
2022-07-27T13:40:57.797Z,96579.53
2022-07-27T13:43:26.015Z,96568.97
2022-07-27T13:45:54.287Z,96574.75
2022-07-27T13:48:22.682Z,96572.97
2022-07-27T13:50:52.437Z,96576.34
2022-07-27T13:53:20.733Z,96580.66
2022-07-27T13:55:49.048Z,96575.56
2022-07-27T13:58:17.311Z,96575.25
2022-07-27T14:00:45.835Z,96580.66
2022-07-27T14:03:14.153Z,96576.75
2022-07-27T14:05:49.129Z,96573.81
2022-07-27T14:08:21.840Z,96570.84
2022-07-27T14:10:51.316Z,96580.38
2022-07-27T14:13:21.582Z,96569.75
2022-07-27T14:15:54.180Z,96575.34
2022-07-27T14:18:26.450Z,96572.88
2022-07-27T14:20:55.730Z,96576.66
2022-07-27T14:23:26.133Z,96572.06
2022-07-27T14:25:55.687Z,96569.66
2022-07-27T14:28:25.224Z,96574.16
2022-07-27T14:30:55.533Z,96572.88
2022-07-27T14:33:24.818Z,96566.09
2022-07-27T14:35:53.244Z,96562.22
2022-07-27T14:38:26.957Z,96566.50
2022-07-27T14:41:01.613Z,96563.69
2022-07-27T14:43:30.672Z,96563.38
2022-07-27T14:45:59.802Z,96565.38
2022-07-27T14:48:48.895Z,96557.72
2022-07-27T14:51:17.226Z,96567.50
2022-07-27T14:53:45.509Z,96564.38
2022-07-27T14:56:15.208Z,96561.09
2022-07-27T14:58:44.261Z,96559.28
2022-07-27T15:01:12.949Z,96556.13
2022-07-27T15:03:41.247Z,96563.97
2022-07-27T15:06:09.744Z,96563.88
2022-07-27T15:08:37.957Z,96556.72
2022-07-27T15:11:06.291Z,96560.28
2022-07-27T15:13:35.880Z,96559.69
2022-07-27T15:16:04.278Z,96552.31
2022-07-27T15:18:38.314Z,96562.09
2022-07-27T15:21:13.644Z,96564.91
2022-07-27T15:23:44.280Z,96564.66
2022-07-27T15:26:13.068Z,96563.88
2022-07-27T15:28:43.702Z,96568.06
2022-07-27T15:31:13.317Z,96551.91
2022-07-27T15:33:42.124Z,96554.22
2022-07-27T15:36:11.615Z,96547.38
2022-07-27T15:39:00.091Z,96551.69
2022-07-27T15:41:28.338Z,96551.47
2022-07-27T15:43:58.385Z,96552.78
2022-07-27T15:46:27.782Z,96549.59
2022-07-27T15:48:56.537Z,96550.69
2022-07-27T15:51:24.872Z,96557.81
2022-07-27T15:53:54.298Z,96549.34
2022-07-27T15:56:22.519Z,96556.72
2022-07-27T15:58:52.551Z,96556.53
2022-07-27T16:01:22.458Z,96541.13
2022-07-27T16:04:05.130Z,96550.69
2022-07-27T16:06:38.401Z,96542.31
2022-07-27T16:09:09.384Z,96551.16
2022-07-27T16:11:38.393Z,96542.31
2022-07-27T16:14:06.618Z,96542.91
2022-07-27T16:16:36.303Z,96543.31
2022-07-27T16:19:12.933Z,96538.50
2022-07-27T16:21:54.616Z,96537.00
2022-07-27T16:24:25.573Z,96530.53
2022-07-27T16:26:54.088Z,96526.22
2022-07-27T16:29:23.028Z,96523.56
2022-07-27T16:31:57.862Z,96519.28
2022-07-27T16:34:27.012Z,96518.97
2022-07-27T16:36:55.781Z,96511.78
2022-07-27T16:39:24.451Z,96519.50
2022-07-27T16:41:52.778Z,96518.19
2022-07-27T16:44:22.108Z,96522.97
2022-07-27T16:46:52.331Z,96518.41
2022-07-27T16:49:20.595Z,96514.00
2022-07-27T16:51:48.960Z,96521.50
2022-07-27T16:54:17.061Z,96523.19
2022-07-27T16:56:45.326Z,96525.06
2022-07-27T16:59:13.717Z,96528.56
2022-07-27T17:01:41.999Z,96530.03
2022-07-27T17:04:11.523Z,96531.31
2022-07-27T17:06:39.623Z,96525.16
2022-07-27T17:09:07.811Z,96520.06
2022-07-27T17:11:37.422Z,96522.06
2022-07-27T17:14:07.187Z,96521.75
2022-07-27T17:16:36.278Z,96523.66
2022-07-27T17:19:04.567Z,96516.38
2022-07-27T17:21:34.078Z,96520.88
2022-07-27T17:24:02.210Z,96521.38
2022-07-27T17:26:30.234Z,96518.28
2022-07-27T17:28:58.406Z,96524.75
2022-07-27T17:31:26.743Z,96518.06
2022-07-27T17:33:55.140Z,96526.72
2022-07-27T17:36:23.523Z,96523.34
2022-07-27T17:38:53.115Z,96523.34
2022-07-27T17:41:24.903Z,96528.84
2022-07-27T17:43:54.400Z,96523.75
2022-07-27T17:46:24.448Z,96533.31
2022-07-27T17:48:53.873Z,96531.69
2022-07-27T17:51:23.184Z,96525.84
2022-07-27T17:53:53.160Z,96530.13
2022-07-27T17:56:21.410Z,96528.13
2022-07-27T17:58:49.482Z,96526.56
2022-07-27T18:04:10.098Z,96531.53
2022-07-27T18:06:38.448Z,96525.34
2022-07-27T18:09:08.693Z,96531.09
2022-07-27T18:11:37.020Z,96532.63
2022-07-27T18:14:05.165Z,96530.91
2022-07-27T18:16:39.753Z,96536.78
2022-07-27T18:19:08.511Z,96532.97
2022-07-27T18:21:37.700Z,96535.09
2022-07-27T18:24:10.165Z,96535.69
2022-07-27T18:26:39.032Z,96541.06
2022-07-27T18:29:07.379Z,96542.63
2022-07-27T18:31:35.791Z,96545.16
2022-07-27T18:34:07.988Z,96546.13
2022-07-27T18:36:38.829Z,96551.13
2022-07-27T18:39:08.840Z,96547.84
2022-07-27T18:41:40.429Z,96553.69
2022-07-27T18:44:08.513Z,96546.84
2022-07-27T18:46:36.600Z,96543.97
2022-07-27T18:49:04.917Z,96551.50
2022-07-27T18:51:33.107Z,96550.06
2022-07-27T18:54:01.468Z,96549.28
2022-07-27T18:56:30.888Z,96559.81
2022-07-27T18:58:58.987Z,96559.03
2022-07-27T19:01:27.319Z,96557.34
2022-07-27T19:03:55.422Z,96560.59
2022-07-27T19:06:23.536Z,96567.38
2022-07-27T19:08:52.620Z,96573.13
2022-07-27T19:11:20.941Z,96578.88
2022-07-27T19:13:50.759Z,96572.25
2022-07-27T19:16:18.805Z,96581.13
2022-07-27T19:18:46.861Z,96575.28
2022-07-27T19:21:15.820Z,96585.03
2022-07-27T19:23:44.035Z,96585.03
2022-07-27T19:26:12.304Z,96590.09
2022-07-27T19:28:41.451Z,96587.19
2022-07-27T19:31:22.275Z,96591.22
2022-07-27T19:33:52.041Z,96587.19
2022-07-27T19:36:20.173Z,96593.66
2022-07-27T19:38:48.267Z,96591.41
2022-07-27T19:41:16.534Z,96581.47
2022-07-27T19:43:45.012Z,96588.28
2022-07-27T19:46:14.674Z,96588.31
2022-07-27T19:48:42.803Z,96593.31
2022-07-27T19:51:11.711Z,96587.94
2022-07-27T19:53:41.085Z,96592.00
2022-07-27T19:56:12.328Z,96595.56
2022-07-27T19:58:40.396Z,96597.38
2022-07-27T20:01:09.383Z,96595.81
2022-07-27T20:03:52.256Z,96602.22
2022-07-27T20:06:23.553Z,96595.97
2022-07-27T20:08:55.619Z,96599.72
2022-07-27T20:11:23.797Z,96602.75
2022-07-27T20:13:51.952Z,96597.19
2022-07-27T20:16:20.277Z,96597.28
2022-07-27T20:18:49.970Z,96600.28
2022-07-27T20:21:22.952Z,96597.59
2022-07-27T20:23:52.237Z,96594.16
2022-07-27T20:26:20.889Z,96602.53
2022-07-27T20:28:51.617Z,96594.75
2022-07-27T20:31:20.087Z,96597.13
2022-07-27T20:33:49.558Z,96598.50
2022-07-27T20:36:17.607Z,96595.97
2022-07-27T20:38:45.619Z,96597.91
2022-07-27T20:41:13.683Z,96595.53
2022-07-27T20:43:41.811Z,96598.44
2022-07-27T20:46:09.996Z,96602.19
2022-07-27T20:48:39.496Z,96601.06
2022-07-27T20:51:09.087Z,96604.03
2022-07-27T20:53:37.161Z,96610.00
2022-07-27T20:56:06.124Z,96600.34
2022-07-27T20:58:34.681Z,96598.44
2022-07-27T21:01:02.919Z,96599.56
2022-07-27T21:03:32.160Z,96595.56
2022-07-27T21:06:00.257Z,96594.25
2022-07-27T21:08:29.759Z,96607.63
2022-07-27T21:10:57.957Z,96589.41
2022-07-27T21:13:26.035Z,96588.88
2022-07-27T21:15:54.348Z,96599.66
2022-07-27T21:18:22.411Z,96597.03
2022-07-27T21:20:50.477Z,96595.28
2022-07-27T21:23:36.376Z,96609.44
2022-07-27T21:26:05.834Z,96602.78
2022-07-27T21:28:35.702Z,96605.81
2022-07-27T21:31:04.464Z,96604.16
2022-07-27T21:33:37.545Z,96600.72
2022-07-27T21:36:08.388Z,96597.91
2022-07-27T21:38:36.538Z,96611.13
2022-07-27T21:41:06.726Z,96603.84
2022-07-27T21:43:35.175Z,96605.81
2022-07-27T21:46:03.296Z,96598.25
2022-07-27T21:48:31.488Z,96610.34
2022-07-27T21:50:59.882Z,96602.28
2022-07-27T21:53:28.105Z,96605.84
2022-07-27T21:55:56.169Z,96606.38
2022-07-27T21:58:26.699Z,96612.47
2022-07-27T22:00:54.974Z,96606.38
2022-07-27T22:03:24.111Z,96606.13
2022-07-27T22:05:52.180Z,96607.16
2022-07-27T22:08:22.439Z,96602.59
2022-07-27T22:10:50.520Z,96608.25
2022-07-27T22:13:18.575Z,96607.16
2022-07-27T22:15:49.518Z,96596.72
2022-07-27T22:18:18.121Z,96607.66
2022-07-27T22:20:46.165Z,96599.69
2022-07-27T22:23:14.530Z,96599.97
2022-07-27T22:25:43.063Z,96603.47
2022-07-27T22:28:11.178Z,96596.53
2022-07-27T22:30:40.113Z,96593.63
2022-07-27T22:33:09.590Z,96606.53
2022-07-27T22:35:37.653Z,96607.88
2022-07-27T22:38:05.822Z,96612.78
2022-07-27T22:40:34.016Z,96612.25
2022-07-27T22:43:26.578Z,96610.69
2022-07-27T22:45:54.828Z,96622.22
2022-07-27T22:48:24.274Z,96621.72
2022-07-27T22:50:54.740Z,96621.47
2022-07-27T22:53:22.877Z,96621.72
2022-07-27T22:55:51.198Z,96617.41
2022-07-27T22:58:21.841Z,96620.63
2022-07-27T23:00:49.993Z,96619.38
2022-07-27T23:03:18.607Z,96618.84
2022-07-27T23:05:48.004Z,96622.88
2022-07-27T23:08:16.158Z,96628.22
2022-07-27T23:10:47.159Z,96627.69
2022-07-27T23:13:17.303Z,96616.97
2022-07-27T23:15:46.746Z,96613.78
2022-07-27T23:18:16.573Z,96616.72
2022-07-27T23:20:45.864Z,96616.19
2022-07-27T23:23:16.730Z,96607.88
2022-07-27T23:25:45.323Z,96607.31
2022-07-27T23:28:15.656Z,96607.31
2022-07-27T23:30:44.218Z,96611.38
2022-07-27T23:33:12.413Z,96607.41
2022-07-27T23:35:40.506Z,96606.56
2022-07-27T23:38:08.567Z,96602.63
2022-07-27T23:40:37.985Z,96596.22
2022-07-27T23:43:06.097Z,96605.59
2022-07-27T23:45:34.993Z,96602.41
2022-07-27T23:48:04.104Z,96603.47
2022-07-27T23:50:32.183Z,96606.41
2022-07-27T23:53:00.272Z,96596.50
2022-07-27T23:55:29.069Z,96586.63
2022-07-27T23:57:58.556Z,96590.66
